KBMI

Central Illinois Regional at Bloomington-Normal Airport

Bloomington/Normal, Illinois, USA
METAR KBMI 201856Z 31029G38KT 10SM FEW060 12/M04 A2998 RMK AO2 PK WND 31040/1833 SLP181 T01221039
Observed Flight Rules
Oct-20 @ 18:56 UTC (23 minutes ago) Visual Flight Rules
Wind Visibility Clouds
310° at 29 knots
 Gusting to 38 knots
10 miles
  • Few at 6,000' AGL
Temperatures Readings
Current 12°C / 54°F
Dewpoint -4°C / 25°F
Humidity 33%
Altimeter 29.98" Hg
Pressure 1018.1 hPa
Elevation 267
METAR KBMI 201856Z 31029G38KT 10SM FEW060 12/M04 A2998 RMK AO2 PK WND 31040/1833 SLP181 T01221039
Observed Flight Rules
Oct-20 @ 18:56 UTC
(23 minutes ago)
VFR
Wind Visibility
310° at 29 knots
 Gusting to 38 knots
10 miles
Clouds
  • Few at 6,000' AGL
Temperature Dewpoint
12°C / 54°F -4°C / 25°F
Humidity Altimeter Pressure
33% 29.98" Hg 1018.1 hPa